createdAt,value
2023-02-16T00:00:37.580Z,99243.13
2023-02-16T00:03:40.714Z,99235.19
2023-02-16T00:06:42.350Z,99237.81
2023-02-16T00:09:44.154Z,99235.19
2023-02-16T00:13:04.510Z,99239.59
2023-02-16T00:16:08.793Z,99235.22
2023-02-16T00:19:19.252Z,99235.19
2023-02-16T00:22:20.881Z,99229.94
2023-02-16T00:25:22.444Z,99223.81
2023-02-16T00:28:24.318Z,99228.22
2023-02-16T00:31:27.776Z,99220.31
2023-02-16T00:34:36.242Z,99225.53
2023-02-16T00:37:37.798Z,99211.50
2023-02-16T00:47:21.844Z,99214.97
2023-02-16T00:50:27.164Z,99197.44
2023-02-16T00:53:28.857Z,99200.06
2023-02-16T00:56:30.731Z,99196.53
2023-02-16T00:59:32.608Z,99183.38
2023-02-16T01:02:34.468Z,99186.00
2023-02-16T01:05:37.526Z,99182.56
2023-02-16T01:08:57.826Z,99174.69
2023-02-16T01:12:00.128Z,99176.44
2023-02-16T01:15:01.808Z,99176.44
2023-02-16T01:18:05.065Z,99186.97
2023-02-16T01:21:08.169Z,99182.59
2023-02-16T01:24:10.350Z,99189.63
2023-02-16T01:27:13.678Z,99180.03
2023-02-16T01:30:17.686Z,99188.78
2023-02-16T01:33:19.783Z,99189.63
2023-02-16T01:36:26.442Z,99181.72
2023-02-16T01:39:28.210Z,99187.81
2023-02-16T01:42:35.784Z,99184.25
2023-02-16T01:45:40.591Z,99189.50
2023-02-16T01:48:42.250Z,99181.59
2023-02-16T01:51:51.401Z,99185.13
2023-02-16T01:54:55.961Z,99188.66
2023-02-16T01:58:00.116Z,99179.84
2023-02-16T02:01:35.343Z,99179.84
2023-02-16T02:04:59.075Z,99178.97
2023-02-16T02:08:06.881Z,99170.25
2023-02-16T02:11:11.659Z,99168.41
2023-02-16T02:14:15.722Z,99171.06
2023-02-16T02:17:18.881Z,99173.69
2023-02-16T02:20:23.347Z,99169.28
2023-02-16T02:23:37.596Z,99164.91
2023-02-16T02:26:54.335Z,99169.28
2023-02-16T02:30:02.854Z,99157.91
2023-02-16T02:33:15.397Z,99160.53
2023-02-16T02:36:22.452Z,99151.75
2023-02-16T02:39:32.382Z,99159.72
2023-02-16T02:42:41.144Z,99154.44
2023-02-16T02:45:45.293Z,99159.69
2023-02-16T02:48:46.983Z,99157.91
2023-02-16T02:51:49.626Z,99150.03
2023-02-16T02:55:09.942Z,99157.94
2023-02-16T02:58:32.530Z,99149.22
2023-02-16T03:01:35.623Z,99147.44
2023-02-16T03:04:37.321Z,99155.38
2023-02-16T03:07:48.321Z,99143.09
2023-02-16T03:11:11.720Z,99141.34
2023-02-16T03:14:16.722Z,99153.66
2023-02-16T03:17:37.278Z,99146.69
2023-02-16T03:20:58.595Z,99159.78
2023-02-16T03:24:20.041Z,99158.03
2023-02-16T03:27:42.923Z,99153.66
2023-02-16T03:30:46.911Z,99154.56
2023-02-16T03:33:54.617Z,99158.06
2023-02-16T03:36:58.970Z,99158.06
2023-02-16T03:40:19.524Z,99153.69
2023-02-16T03:43:24.377Z,99158.09
2023-02-16T03:46:28.061Z,99163.34
2023-02-16T03:49:29.953Z,99151.09
2023-02-16T03:52:31.876Z,99155.47
2023-02-16T03:55:34.149Z,99151.09
2023-02-16T03:58:35.838Z,99153.72
2023-02-16T04:01:39.177Z,99153.72
2023-02-16T04:04:40.758Z,99158.13
2023-02-16T04:07:43.532Z,99163.38
2023-02-16T04:10:45.228Z,99162.47
2023-02-16T04:13:46.991Z,99147.63
2023-02-16T04:16:50.340Z,99159.88
2023-02-16T04:19:51.984Z,99146.72
2023-02-16T04:22:54.148Z,99144.97
2023-02-16T04:25:55.963Z,99139.72
2023-02-16T04:28:57.911Z,99145.88
2023-02-16T04:32:01.316Z,99144.09
2023-02-16T04:35:03.064Z,99148.47
2023-02-16T04:38:04.891Z,99136.22
2023-02-16T04:41:06.531Z,99133.59
2023-02-16T04:44:08.627Z,99134.47
2023-02-16T04:47:11.702Z,99130.97
2023-02-16T04:50:13.595Z,99130.06
2023-02-16T04:53:15.245Z,99122.19
2023-02-16T04:56:17.365Z,99113.44
2023-02-16T04:59:19.425Z,99120.44
2023-02-16T05:02:22.863Z,99123.09
2023-02-16T05:05:24.635Z,99127.47
2023-02-16T05:08:26.514Z,99126.56
2023-02-16T05:11:46.702Z,99127.47
2023-02-16T05:14:48.618Z,99128.31
2023-02-16T05:17:51.897Z,99131.84
2023-02-16T05:21:12.550Z,99123.97
2023-02-16T05:24:14.422Z,99120.47
2023-02-16T05:27:17.232Z,99126.59
2023-02-16T05:30:19.029Z,99124.84
2023-02-16T05:33:22.318Z,99123.09
2023-02-16T05:36:24.242Z,99127.47
2023-02-16T05:39:25.974Z,99125.72
2023-02-16T05:42:28.058Z,99125.72
2023-02-16T05:45:29.802Z,99126.59
2023-02-16T05:48:32.901Z,99130.97
2023-02-16T05:51:34.892Z,99131.84
2023-02-16T05:54:37.304Z,99133.59
2023-02-16T05:57:39.148Z,99125.72
2023-02-16T06:00:40.770Z,99123.97
2023-02-16T06:03:44.215Z,99139.75
2023-02-16T06:06:46.020Z,99137.09
2023-02-16T06:09:47.841Z,99137.09
2023-02-16T06:12:49.687Z,99131.84
2023-02-16T06:15:52.557Z,99136.22
2023-02-16T06:18:56.195Z,99132.72
2023-02-16T06:21:57.950Z,99132.72
2023-02-16T06:24:59.644Z,99142.34
2023-02-16T06:28:01.571Z,99131.84
2023-02-16T06:31:03.777Z,99130.94
2023-02-16T06:34:07.475Z,99130.09
2023-02-16T06:37:09.234Z,99133.56
2023-02-16T06:40:11.842Z,99137.09
2023-02-16T06:43:13.774Z,99146.75
2023-02-16T06:46:15.662Z,99143.22
2023-02-16T06:49:19.948Z,99139.72
2023-02-16T06:52:22.026Z,99149.34
2023-02-16T06:55:23.960Z,99148.44
2023-02-16T06:58:25.555Z,99152.84
2023-02-16T07:01:27.988Z,99154.59
2023-02-16T07:04:31.082Z,99155.47
2023-02-16T07:07:33.054Z,99154.63
2023-02-16T07:10:47.748Z,99160.75
2023-02-16T07:13:51.584Z,99151.09
2023-02-16T07:16:53.251Z,99162.50
2023-02-16T07:19:58.881Z,99148.50
2023-02-16T07:23:01.521Z,99159.00
2023-02-16T07:26:03.544Z,99162.50
2023-02-16T07:29:05.619Z,99156.34
2023-02-16T07:32:07.355Z,99158.09
2023-02-16T07:35:10.847Z,99164.22
2023-02-16T07:38:13.122Z,99155.50
2023-02-16T07:41:15.308Z,99155.50
2023-02-16T07:44:16.864Z,99160.75
2023-02-16T07:47:18.496Z,99159.00
2023-02-16T07:50:21.605Z,99166.00
2023-02-16T07:53:23.209Z,99171.25
2023-02-16T07:56:26.397Z,99179.16
2023-02-16T07:59:28.198Z,99170.38
2023-02-16T08:02:30.095Z,99172.13
2023-02-16T08:05:34.079Z,99173.88
2023-02-16T08:08:36.372Z,99176.47
2023-02-16T08:11:38.062Z,99173.84
2023-02-16T08:14:40.118Z,99176.44
2023-02-16T08:17:41.691Z,99179.06
2023-02-16T08:21:03.860Z,99186.03
2023-02-16T08:24:07.878Z,99185.16
2023-02-16T08:27:09.770Z,99172.84
2023-02-16T08:30:12.973Z,99167.53
2023-02-16T08:33:14.824Z,99157.06
2023-02-16T08:36:18.910Z,99157.09
2023-02-16T08:39:21.286Z,99154.41
2023-02-16T08:42:23.033Z,99154.41
2023-02-16T08:45:24.844Z,99159.72
2023-02-16T08:48:28.826Z,99157.91
2023-02-16T08:51:34.777Z,99155.28
2023-02-16T08:54:36.407Z,99150.00
2023-02-16T08:57:38.027Z,99166.63
2023-02-16T09:00:39.931Z,99168.38
2023-02-16T09:03:42.924Z,99161.38
2023-02-16T09:06:46.409Z,99164.84
2023-02-16T09:09:48.346Z,99160.38
2023-02-16T09:12:49.990Z,99159.50
2023-02-16T09:15:51.739Z,99155.13
2023-02-16T09:18:53.774Z,99157.75
2023-02-16T09:21:56.967Z,99160.38
2023-02-16T09:24:58.526Z,99167.44
2023-02-16T09:28:01.065Z,99171.78
2023-02-16T09:31:08.660Z,99170.00
2023-02-16T09:34:16.274Z,99176.97
2023-02-16T09:37:19.260Z,99171.72
2023-02-16T09:40:21.099Z,99169.97
2023-02-16T09:43:33.728Z,99176.94
2023-02-16T09:46:36.782Z,99176.00
2023-02-16T09:49:40.932Z,99176.81
2023-02-16T09:52:47.584Z,99172.38
2023-02-16T09:55:54.521Z,99174.16
2023-02-16T09:58:58.180Z,99167.19
2023-02-16T10:02:03.020Z,99163.63
2023-02-16T10:05:24.012Z,99155.81
2023-02-16T10:08:30.100Z,99155.88
2023-02-16T10:11:47.563Z,99152.28
2023-02-16T10:14:51.670Z,99153.09
2023-02-16T10:17:56.008Z,99140.72
2023-02-16T10:20:59.837Z,99146.75
2023-02-16T10:24:03.989Z,99142.25
2023-02-16T10:27:08.511Z,99152.69
2023-02-16T10:30:15.265Z,99159.66
2023-02-16T10:33:22.885Z,99161.38
2023-02-16T10:36:29.258Z,99159.59
2023-02-16T10:39:36.830Z,99154.22
2023-02-16T10:42:43.757Z,99162.09
2023-02-16T10:45:51.974Z,99161.22
2023-02-16T10:48:55.134Z,99159.34
2023-02-16T10:51:57.178Z,99155.72
2023-02-16T10:55:03.823Z,99159.16
2023-02-16T10:58:13.613Z,99153.88
2023-02-16T11:01:16.412Z,99152.97
2023-02-16T11:04:33.294Z,99163.47
2023-02-16T11:11:09.457Z,99142.25
2023-02-16T11:14:22.385Z,99145.63
2023-02-16T11:17:24.909Z,99143.66
2023-02-16T11:20:33.143Z,99139.22
2023-02-16T11:23:35.334Z,99135.50
2023-02-16T11:26:39.206Z,99134.47
2023-02-16T11:29:41.068Z,99136.94
2023-02-16T11:32:43.002Z,99129.59
2023-02-16T11:35:44.855Z,99134.84
2023-02-16T11:38:56.282Z,99123.44
2023-02-16T11:42:01.865Z,99119.91
2023-02-16T11:45:04.830Z,99126.97
2023-02-16T11:48:07.420Z,99123.34
2023-02-16T11:51:10.701Z,99122.38
2023-02-16T11:54:16.880Z,99115.03
2023-02-16T11:57:24.785Z,99108.16
2023-02-16T12:00:27.658Z,99107.53
2023-02-16T12:03:56.945Z,99102.88
2023-02-16T12:07:03.720Z,99101.38
2023-02-16T12:10:08.797Z,99105.09
2023-02-16T12:13:18.095Z,99102.50
2023-02-16T12:16:27.982Z,99097.94
2023-02-16T12:19:36.816Z,99096.03
2023-02-16T12:22:41.756Z,99101.38
2023-02-16T12:25:49.293Z,99104.72
2023-02-16T12:29:02.934Z,99094.91
2023-02-16T12:32:22.308Z,99099.16
2023-02-16T12:35:41.436Z,99091.56
2023-02-16T12:38:48.648Z,99092.53
2023-02-16T12:41:57.390Z,99087.13
2023-02-16T12:45:03.096Z,99071.44
2023-02-16T12:48:21.806Z,99070.09
2023-02-16T12:51:26.601Z,99049.34
2023-02-16T12:54:30.097Z,99068.16
2023-02-16T12:57:32.040Z,99060.31
2023-02-16T13:00:46.194Z,99062.06
2023-02-16T13:03:50.556Z,99062.06
2023-02-16T13:06:56.861Z,99053.94
2023-02-16T13:10:01.932Z,99053.03
2023-02-16T13:13:06.539Z,99058.31
2023-02-16T13:16:28.725Z,99051.97
2023-02-16T13:19:31.842Z,99046.47
2023-02-16T13:22:49.649Z,99049.81
2023-02-16T13:25:57.991Z,99037.31
2023-02-16T13:29:14.794Z,99035.34
2023-02-16T13:32:28.472Z,99038.72
2023-02-16T13:35:40.587Z,99045.38
2023-02-16T13:39:15.651Z,99048.16
2023-02-16T13:42:38.581Z,99028.31
2023-02-16T13:45:41.186Z,99014.66
2023-02-16T13:48:47.639Z,99010.13
2023-02-16T13:51:49.945Z,99012.84
2023-02-16T13:54:51.603Z,99008.53
2023-02-16T13:58:04.831Z,99000.72
2023-02-16T14:01:25.258Z,99000.53
2023-02-16T14:04:45.567Z,98995.94
2023-02-16T14:08:08.275Z,98992.09
2023-02-16T14:11:10.904Z,98984.66
2023-02-16T14:14:25.517Z,98981.09
2023-02-16T14:17:28.445Z,98980.81
2023-02-16T14:20:30.291Z,98979.09
2023-02-16T14:23:37.374Z,98970.31
2023-02-16T14:26:52.653Z,98965.09
2023-02-16T14:29:56.796Z,98946.66
2023-02-16T14:33:01.639Z,98947.59
2023-02-16T14:36:12.122Z,98947.69
2023-02-16T14:39:18.858Z,98942.31
2023-02-16T14:42:26.425Z,98927.91
2023-02-16T14:45:42.867Z,98929.50
2023-02-16T14:48:50.543Z,98930.47
2023-02-16T14:52:03.822Z,98931.38
2023-02-16T14:55:36.387Z,98931.50
2023-02-16T14:58:44.731Z,98935.13
2023-02-16T15:01:47.127Z,98940.53
2023-02-16T15:04:48.982Z,98956.47
2023-02-16T15:07:52.428Z,98983.94
2023-02-16T15:10:58.452Z,98983.06
2023-02-16T15:14:08.016Z,98978.78
2023-02-16T15:17:10.391Z,98976.22
2023-02-16T15:20:19.676Z,98969.16
2023-02-16T15:23:22.516Z,98959.47
2023-02-16T15:26:25.301Z,98963.09
2023-02-16T15:29:29.383Z,98960.66
2023-02-16T15:32:32.198Z,98963.75
2023-02-16T15:35:35.650Z,98960.63
2023-02-16T15:38:38.989Z,98966.97
2023-02-16T15:41:43.573Z,98950.31
2023-02-16T15:44:48.136Z,98953.88
2023-02-16T15:47:49.847Z,98952.19
2023-02-16T15:50:53.538Z,98953.16
2023-02-16T15:53:56.487Z,98955.94
2023-02-16T15:56:59.142Z,98956.06
2023-02-16T16:00:03.845Z,98958.84
2023-02-16T16:03:15.870Z,98950.97
2023-02-16T16:06:17.428Z,98955.47
2023-02-16T16:09:22.579Z,98954.59
2023-02-16T16:12:25.086Z,98963.50
2023-02-16T16:15:29.712Z,98964.44
2023-02-16T16:18:37.390Z,98966.38
2023-02-16T16:21:45.758Z,98967.34
2023-02-16T16:24:48.620Z,98963.84
2023-02-16T16:27:50.406Z,98969.16
2023-02-16T16:31:07.157Z,98962.16
2023-02-16T16:34:10.781Z,98970.16
2023-02-16T16:37:22.166Z,98968.44
2023-02-16T16:40:25.887Z,98973.78
2023-02-16T16:43:28.460Z,98970.41
2023-02-16T16:46:32.672Z,98979.34
2023-02-16T16:49:37.305Z,98966.25
2023-02-16T16:52:40.628Z,98977.75
2023-02-16T16:55:42.443Z,98968.94
2023-02-16T16:58:47.629Z,98980.47
2023-02-16T17:01:52.850Z,98977.91
2023-02-16T17:04:54.592Z,98973.59
2023-02-16T17:07:56.263Z,98968.34
2023-02-16T17:10:58.066Z,98964.03
2023-02-16T17:14:05.001Z,98964.09
2023-02-16T17:17:11.724Z,98965.03
2023-02-16T17:20:13.524Z,98966.75
2023-02-16T17:23:16.424Z,98961.47
2023-02-16T17:26:18.075Z,98957.94
2023-02-16T17:29:19.770Z,98961.50
2023-02-16T17:32:24.342Z,98948.25
2023-02-16T17:35:26.221Z,98943.88
2023-02-16T17:38:28.012Z,98941.31
2023-02-16T17:41:30.202Z,98931.66
2023-02-16T17:44:31.815Z,98927.28
2023-02-16T17:47:34.839Z,98925.56
2023-02-16T17:50:36.467Z,98911.63
2023-02-16T17:53:38.142Z,98911.66
2023-02-16T17:56:40.020Z,98897.59
2023-02-16T17:59:42.480Z,98903.84
2023-02-16T18:02:45.486Z,98907.47
2023-02-16T18:05:47.123Z,98904.84
2023-02-16T18:08:48.602Z,98900.47
2023-02-16T18:11:50.561Z,98900.53
2023-02-16T18:14:52.258Z,98888.25
2023-02-16T18:17:55.569Z,98890.88
2023-02-16T18:20:57.192Z,98880.25
2023-02-16T18:23:58.778Z,98881.97
2023-02-16T18:27:00.484Z,98891.66
2023-02-16T18:30:02.242Z,98888.09
2023-02-16T18:33:05.146Z,98889.81
2023-02-16T18:36:08.438Z,98885.38
2023-02-16T18:39:10.357Z,98881.88
2023-02-16T18:42:12.027Z,98880.06
2023-02-16T18:45:13.837Z,98884.41
2023-02-16T18:48:16.754Z,98878.16
2023-02-16T18:51:18.723Z,98881.72
2023-02-16T18:54:20.278Z,98884.34
2023-02-16T18:57:22.658Z,98878.16
2023-02-16T19:00:24.312Z,98875.47
2023-02-16T19:03:29.818Z,98875.47
2023-02-16T19:06:31.927Z,98868.47
2023-02-16T19:09:33.751Z,98879.97
2023-02-16T19:12:35.337Z,98880.06
2023-02-16T19:15:37.968Z,98867.75
2023-02-16T19:18:40.974Z,98872.19
2023-02-16T19:21:44.333Z,98866.91
2023-02-16T19:24:46.101Z,98859.00
2023-02-16T19:27:48.271Z,98853.75
2023-02-16T19:30:50.299Z,98855.56
2023-02-16T19:33:53.313Z,98854.69
2023-02-16T19:36:55.084Z,98852.06
2023-02-16T19:39:56.695Z,98845.06
2023-02-16T19:42:58.433Z,98850.41
2023-02-16T19:46:02.267Z,98848.75
2023-02-16T19:49:05.346Z,98847.91
2023-02-16T19:52:07.010Z,98847.06
2023-02-16T19:55:10.633Z,98850.63
2023-02-16T19:58:13.093Z,98846.22
2023-02-16T20:01:16.028Z,98848.00
2023-02-16T20:04:19.125Z,98848.00
2023-02-16T20:07:20.878Z,98835.69
2023-02-16T20:10:22.541Z,98834.81
2023-02-16T20:13:24.323Z,98841.00
2023-02-16T20:16:27.059Z,98848.16
2023-02-16T20:19:30.069Z,98849.94
2023-02-16T20:22:31.732Z,98844.72
2023-02-16T20:25:33.519Z,98845.72
2023-02-16T20:28:35.287Z,98837.91
2023-02-16T20:31:41.273Z,98847.81
2023-02-16T20:34:44.371Z,98837.34
2023-02-16T20:37:46.163Z,98827.69
2023-02-16T20:40:48.121Z,98827.72
2023-02-16T20:43:50.164Z,98835.66
2023-02-16T20:46:52.002Z,98845.31
2023-02-16T20:49:55.157Z,98832.06
2023-02-16T20:52:56.737Z,98848.72
2023-02-16T20:56:02.797Z,98839.78
2023-02-16T20:59:04.907Z,98834.50
2023-02-16T21:02:07.043Z,98839.75
2023-02-16T21:05:10.295Z,98828.31
2023-02-16T21:08:11.995Z,98817.75
2023-02-16T21:11:14.073Z,98810.78
2023-02-16T21:14:15.820Z,98812.53
2023-02-16T21:17:17.939Z,98815.16
2023-02-16T21:20:21.019Z,98814.34
2023-02-16T21:23:22.646Z,98815.25
2023-02-16T21:26:25.287Z,98810.84
2023-02-16T21:29:27.055Z,98810.75
2023-02-16T21:32:28.952Z,98804.53
2023-02-16T21:35:32.914Z,98809.75
2023-02-16T21:38:35.499Z,98802.53
2023-02-16T21:41:37.045Z,98801.59
2023-02-16T21:44:43.219Z,98797.22
2023-02-16T21:48:04.529Z,98787.53
2023-02-16T21:51:07.601Z,98785.81
2023-02-16T21:54:12.643Z,98786.63
2023-02-16T21:57:15.435Z,98778.72
2023-02-16T22:00:17.376Z,98772.50
2023-02-16T22:03:20.373Z,98774.25
2023-02-16T22:06:24.718Z,98767.06
2023-02-16T22:09:26.297Z,98766.06
2023-02-16T22:12:28.103Z,98758.13
2023-02-16T22:15:29.774Z,98759.00
2023-02-16T22:18:31.318Z,98755.47
2023-02-16T22:21:38.673Z,98748.41
2023-02-16T22:24:40.612Z,98750.16
2023-02-16T22:27:42.470Z,98744.84
2023-02-16T22:30:45.407Z,98738.63
2023-02-16T22:33:47.194Z,98737.72
2023-02-16T22:36:50.429Z,98738.50
2023-02-16T22:39:55.219Z,98735.84
2023-02-16T22:43:00.254Z,98738.34
2023-02-16T22:46:05.028Z,98728.63
2023-02-16T22:49:07.134Z,98727.69
2023-02-16T22:52:11.696Z,98736.50
2023-02-16T22:55:13.459Z,98740.88
2023-02-16T22:58:15.159Z,98753.13
2023-02-16T23:01:18.333Z,98757.41
2023-02-16T23:04:20.267Z,98760.88
2023-02-16T23:07:23.469Z,98757.22
2023-02-16T23:10:25.120Z,98749.25
2023-02-16T23:13:31.594Z,98748.19
2023-02-16T23:16:33.439Z,98735.81
2023-02-16T23:19:35.187Z,98738.50
2023-02-16T23:22:38.445Z,98734.84
2023-02-16T23:25:43.634Z,98731.34
2023-02-16T23:28:45.600Z,98727.78
2023-02-16T23:31:48.152Z,98732.91
2023-02-16T23:34:49.851Z,98727.59
2023-02-16T23:37:52.754Z,98717.81
2023-02-16T23:40:55.220Z,98723.13
2023-02-16T23:43:56.897Z,98721.34
2023-02-16T23:46:58.515Z,98717.75
2023-02-16T23:50:00.827Z,98712.34
2023-02-16T23:53:03.866Z,98709.75
2023-02-16T23:56:06.826Z,98715.91
2023-02-16T23:59:08.670Z,98719.38
